Hauptseite
METAR-TAF:

METAR-TAF

Flughäfen :

Masvingo, Simbabwe

Breite: 20-04S, Länge: 030-52E, Höhe: 1094 m

Beobachtung

Neuester Wetterbericht von vor 8 Stunden und 10 Minuten, um 13:00 UTC
Wind 6 kt aus Südwest
Temperatur 36°C
Luftfeuchtigkeit 25%
Luftdruck 1014 hPa
Sichtweite 10 km oder mehr
keine Wolken unter 1500 m und keine Kumulonimbus oder Gewitterwolken

METAR: FVMV 251300Z 22006KT CAVOK 36/13 Q1014

Zeit: 23:10 (21:10 UTC)


TAF: fehlend

Wetterbeobachtungen und Prognosen von mehr als 4000 Flughäfen (METAR und TAF Bericht).

Die verfügbaren Stationen werden durch gelbe und rote Markierungen auf der Karte dargestellt.

Führen Sie die Maus auf sie, um den Namen der Station zu sehen.

Darauf klicken, um die Beobachtung von Wetterbeobachtungen und Prognosen zu sehen.

Um die Karte zu ändern : klicken Sie auf den grünen Tasten mit einem schwarzen Kreuz Zum Vergrößern, auf den grünen Button mit einem Gedankenstrich zu verkleinern, oder auf die grünen Pfeile für benachbarte Karten.


METAR-TAF: